createdAt,value
2019-03-05T00:02:32.719Z,1.10
2019-03-05T00:06:50.891Z,0.93
2019-03-05T00:11:09.050Z,1.10
2019-03-05T00:15:28.104Z,1.00
2019-03-05T00:19:46.728Z,1.10
2019-03-05T00:24:48.833Z,1.00
2019-03-05T00:29:58.796Z,1.47
2019-03-05T00:35:17.385Z,1.10
2019-03-05T00:40:21.348Z,1.17
2019-03-05T00:45:25.873Z,2.00
2019-03-05T00:50:40.687Z,1.87
2019-03-05T00:55:50.949Z,1.23
2019-03-05T01:01:17.985Z,1.00
2019-03-05T01:06:20.305Z,1.80
2019-03-05T01:10:38.546Z,1.50
2019-03-05T01:14:59.529Z,1.30
2019-03-05T01:19:17.664Z,1.30
2019-03-05T01:23:35.784Z,1.10
2019-03-05T01:27:54.551Z,1.00
2019-03-05T01:32:31.761Z,1.30
2019-03-05T01:36:53.590Z,1.10
2019-03-05T01:41:12.716Z,1.03
2019-03-05T01:45:30.846Z,1.40
2019-03-05T01:49:49.450Z,1.30
2019-03-05T01:54:07.572Z,1.17
2019-03-05T01:58:25.867Z,1.43
2019-03-05T02:02:45.299Z,1.20
2019-03-05T02:07:03.864Z,1.83
2019-03-05T02:11:22.093Z,1.73
2019-03-05T02:15:40.586Z,2.60
2019-03-05T04:54:54.113Z,1.97
2019-03-05T04:59:12.453Z,1.00
2019-03-05T05:03:30.704Z,1.60
2019-03-05T05:07:49.169Z,1.00
2019-03-05T05:12:07.265Z,1.10
2019-03-05T05:16:25.408Z,1.10
2019-03-05T05:20:43.565Z,2.13
2019-03-05T05:25:01.754Z,1.73
2019-03-05T05:29:20.030Z,0.90
2019-03-05T05:33:38.346Z,1.00
2019-03-05T05:37:56.511Z,1.20
2019-03-05T05:42:14.659Z,1.27
2019-03-05T05:46:33.295Z,0.97
2019-03-05T05:50:52.538Z,1.50
2019-03-05T05:55:11.259Z,1.60
2019-03-05T05:59:29.371Z,1.57
2019-03-05T06:03:47.552Z,1.93
2019-03-05T06:08:05.838Z,3.03
2019-03-05T06:12:24.965Z,1.03
2019-03-05T06:16:43.008Z,1.27
2019-03-05T06:21:01.581Z,1.10
2019-03-05T06:25:19.870Z,1.40
2019-03-05T06:29:37.979Z,1.50
2019-03-05T06:33:56.243Z,0.90
2019-03-05T06:38:14.443Z,1.10
2019-03-05T06:42:32.841Z,1.50
2019-03-05T06:46:51.468Z,1.33
2019-03-05T06:51:09.719Z,1.73
2019-03-05T06:55:28.023Z,1.27
2019-03-05T06:59:46.039Z,1.20
2019-03-05T07:04:04.241Z,1.77
2019-03-05T07:08:22.385Z,1.10
2019-03-05T07:13:08.744Z,1.00
2019-03-05T07:17:45.232Z,1.20
2019-03-05T07:22:51.333Z,1.47
2019-03-05T07:27:11.152Z,0.97
2019-03-05T07:31:29.895Z,1.00
2019-03-05T07:35:48.011Z,1.00
2019-03-05T07:40:07.325Z,1.30
2019-03-05T07:44:25.540Z,1.40
2019-03-05T07:48:43.724Z,0.90
2019-03-05T07:53:02.107Z,1.87
2019-03-05T07:57:20.994Z,0.90
2019-03-05T08:01:40.493Z,1.20
2019-03-05T08:05:58.681Z,1.10
2019-03-05T08:10:26.885Z,1.10
2019-03-05T08:15:31.921Z,1.07
2019-03-05T08:19:50.175Z,0.90
2019-03-05T08:24:08.774Z,1.00
2019-03-05T08:28:27.435Z,1.10
2019-03-05T08:32:47.073Z,1.83
2019-03-05T08:37:05.365Z,1.93
2019-03-05T08:41:23.609Z,1.30
2019-03-05T08:45:41.899Z,1.20
2019-03-05T08:50:00.276Z,1.00
2019-03-05T08:54:18.309Z,2.07
2019-03-05T08:58:36.440Z,1.70
2019-03-05T09:02:55.117Z,1.00
2019-03-05T09:07:13.335Z,1.30
2019-03-05T09:11:31.887Z,1.20
2019-03-05T09:15:49.920Z,1.40
2019-03-05T09:20:10.269Z,1.10
2019-03-05T09:24:28.333Z,1.63
2019-03-05T09:28:46.640Z,1.53
2019-03-05T09:33:06.483Z,1.20
2019-03-05T09:37:24.896Z,1.50
2019-03-05T09:41:44.504Z,1.27
2019-03-05T09:46:02.762Z,1.60
2019-03-05T09:50:24.066Z,2.30
2019-03-05T09:54:43.559Z,2.10
2019-03-05T09:59:01.836Z,1.37
2019-03-05T10:03:20.086Z,1.10
2019-03-05T10:07:38.237Z,1.33
2019-03-05T10:11:57.031Z,1.50
2019-03-05T10:16:15.927Z,2.63
2019-03-05T10:20:34.012Z,3.93
2019-03-05T10:24:52.743Z,3.10
2019-03-05T10:29:10.823Z,3.30
2019-03-05T10:33:28.958Z,3.77
2019-03-05T10:37:48.707Z,3.70
2019-03-05T10:42:07.200Z,4.57
2019-03-05T10:46:25.261Z,4.07
2019-03-05T10:50:43.502Z,2.83
2019-03-05T10:55:01.806Z,3.23
2019-03-05T10:59:20.065Z,3.93
2019-03-05T11:03:38.678Z,3.30
2019-03-05T11:07:56.874Z,4.00
2019-03-05T11:12:15.447Z,2.63
2019-03-05T11:16:33.770Z,3.63
2019-03-05T11:20:52.674Z,4.30
2019-03-05T11:25:12.449Z,3.97
2019-03-05T11:29:30.547Z,3.30
2019-03-05T11:33:48.702Z,3.43
2019-03-05T11:38:11.076Z,3.53
2019-03-05T11:42:29.580Z,2.70
2019-03-05T11:46:48.056Z,3.50
2019-03-05T11:51:06.994Z,3.10
2019-03-05T11:55:25.818Z,3.50
2019-03-05T11:59:44.007Z,3.47
2019-03-05T12:04:02.466Z,3.87
2019-03-05T12:08:21.121Z,3.87
2019-03-05T12:12:39.771Z,3.70
2019-03-05T12:16:58.109Z,3.33
2019-03-05T12:21:16.270Z,3.90
2019-03-05T12:25:36.229Z,4.73
2019-03-05T12:29:55.996Z,4.20
2019-03-05T12:34:14.386Z,5.13
2019-03-05T12:38:32.587Z,3.40
2019-03-05T12:42:54.992Z,3.00
2019-03-05T12:47:15.824Z,3.30
2019-03-05T12:51:33.807Z,5.83
2019-03-05T12:55:53.183Z,3.40
2019-03-05T13:00:16.818Z,3.30
2019-03-05T13:04:36.151Z,3.13
2019-03-05T13:08:54.225Z,2.87
2019-03-05T13:13:14.031Z,2.30
2019-03-05T13:17:32.470Z,2.60
2019-03-05T13:21:50.435Z,2.17
2019-03-05T13:26:09.265Z,1.10
2019-03-05T13:30:28.026Z,1.50
2019-03-05T13:34:46.485Z,1.30
2019-03-05T13:39:05.716Z,2.07
2019-03-05T13:43:25.576Z,1.83
2019-03-05T13:47:52.574Z,1.57
2019-03-05T13:52:56.824Z,1.10
2019-03-05T13:57:58.844Z,1.30
2019-03-05T14:03:00.599Z,1.30
2019-03-05T14:08:17.996Z,1.60
2019-03-05T14:12:36.220Z,1.30
2019-03-05T14:17:13.491Z,1.93
2019-03-05T14:21:31.746Z,1.23
2019-03-05T14:25:49.912Z,1.10
2019-03-05T14:30:12.783Z,1.20
2019-03-05T14:34:31.472Z,1.33
2019-03-05T14:38:49.661Z,1.40
2019-03-05T14:43:08.493Z,1.73
2019-03-05T14:47:27.104Z,1.20
2019-03-05T14:51:45.463Z,1.23
2019-03-05T14:56:05.194Z,1.20
2019-03-05T15:00:24.603Z,2.77
2019-03-05T15:04:43.179Z,1.33
2019-03-05T15:09:01.583Z,1.97
2019-03-05T15:13:21.695Z,1.30
2019-03-05T15:17:39.893Z,2.23
2019-03-05T15:21:58.054Z,1.63
2019-03-05T15:26:16.365Z,2.17
2019-03-05T15:30:34.691Z,2.10
2019-03-05T15:34:52.902Z,2.17
2019-03-05T15:39:11.408Z,2.00
2019-03-05T15:43:30.489Z,2.70
2019-03-05T15:47:48.715Z,2.10
2019-03-05T15:52:07.025Z,2.70
2019-03-05T15:56:25.637Z,3.00
2019-03-05T16:00:44.628Z,2.90
2019-03-05T16:05:11.364Z,3.77
2019-03-05T16:09:22.918Z,3.77
2019-03-05T16:13:45.069Z,3.40
2019-03-05T16:18:10.883Z,3.10
2019-03-05T16:22:32.064Z,2.70
2019-03-05T16:26:51.255Z,2.23
2019-03-05T16:31:29.173Z,2.40
2019-03-05T16:36:07.105Z,1.70
2019-03-05T16:40:52.357Z,1.60
2019-03-05T16:45:49.592Z,1.60
2019-03-05T16:50:17.439Z,1.60
2019-03-05T16:54:58.871Z,1.50
2019-03-05T16:59:31.043Z,1.40
2019-03-05T17:03:59.440Z,1.30
2019-03-05T17:08:43.202Z,1.30
2019-03-05T17:13:02.783Z,1.20
2019-03-05T17:17:24.129Z,1.20
2019-03-05T17:21:43.666Z,1.27
2019-03-05T17:26:04.327Z,1.10
2019-03-05T17:30:25.628Z,1.20
2019-03-05T17:34:47.210Z,1.20
2019-03-05T17:39:15.648Z,1.00
2019-03-05T17:43:41.560Z,1.20
2019-03-05T17:48:03.083Z,1.10
2019-03-05T17:52:23.866Z,1.17
2019-03-05T17:56:44.322Z,1.00
2019-03-05T18:01:04.378Z,1.10
2019-03-05T18:05:22.916Z,0.90
2019-03-05T18:09:41.225Z,1.00
2019-03-05T18:14:00.010Z,1.10
2019-03-05T18:18:18.451Z,1.00
2019-03-05T18:22:36.791Z,0.90
2019-03-05T18:26:55.717Z,1.00
2019-03-05T18:31:15.488Z,0.90
2019-03-05T18:35:34.486Z,1.10
2019-03-05T18:39:53.301Z,1.10
2019-03-05T18:44:11.726Z,1.20
2019-03-05T18:48:30.306Z,1.30
2019-03-05T18:52:50.336Z,2.27
2019-03-05T18:57:08.512Z,1.00
2019-03-05T19:01:26.759Z,1.30
2019-03-05T19:05:44.888Z,1.10
2019-03-05T19:10:04.634Z,1.23
2019-03-05T19:14:23.458Z,0.90
2019-03-05T19:18:41.897Z,0.97
2019-03-05T19:23:00.148Z,2.00
2019-03-05T19:27:25.960Z,3.90
2019-03-05T19:31:39.075Z,3.17
2019-03-05T19:35:57.206Z,1.57
2019-03-05T19:40:19.899Z,1.13
2019-03-05T19:44:39.833Z,1.37
2019-03-05T19:48:58.407Z,1.00
2019-03-05T19:53:16.578Z,1.00
2019-03-05T19:57:35.508Z,1.00
2019-03-05T20:01:54.212Z,0.90
2019-03-05T20:06:13.492Z,1.20
2019-03-05T20:10:32.223Z,0.90
2019-03-05T20:14:50.434Z,1.80
2019-03-05T20:19:08.939Z,2.37
2019-03-05T20:23:27.754Z,2.77
2019-03-05T20:27:46.269Z,3.27
2019-03-05T20:32:04.867Z,3.43
2019-03-05T20:36:23.353Z,3.73
2019-03-05T20:40:41.886Z,4.00
2019-03-05T20:45:08.307Z,3.73
2019-03-05T20:49:27.672Z,3.90
2019-03-05T20:53:46.309Z,3.70
2019-03-05T20:58:05.859Z,4.20
2019-03-05T21:02:24.557Z,3.60
2019-03-05T21:06:43.108Z,3.20
2019-03-05T21:11:01.901Z,3.00
2019-03-05T21:15:20.480Z,2.50
2019-03-05T21:19:38.802Z,2.20
2019-03-05T21:23:57.460Z,1.93
2019-03-05T21:28:15.575Z,3.13
2019-03-05T21:32:33.896Z,2.70
2019-03-05T21:36:52.177Z,3.13
2019-03-05T21:41:10.343Z,2.77
2019-03-05T21:45:35.350Z,2.50
2019-03-05T21:49:54.537Z,2.43
2019-03-05T21:54:13.843Z,2.10
2019-03-05T21:58:32.641Z,2.00
2019-03-05T22:02:51.036Z,1.70
2019-03-05T22:07:09.618Z,1.60
2019-03-05T22:11:28.606Z,1.40
2019-03-05T22:15:46.845Z,1.20
2019-03-05T22:20:06.224Z,1.10
2019-03-05T22:24:24.347Z,1.03
2019-03-05T22:28:43.304Z,1.00
2019-03-05T22:33:01.474Z,1.60
2019-03-05T22:37:19.736Z,1.00
2019-03-05T22:41:38.457Z,1.20
2019-03-05T22:45:57.416Z,1.50
2019-03-05T22:50:15.870Z,1.23
2019-03-05T22:54:34.071Z,1.10
2019-03-05T22:58:52.301Z,1.00
2019-03-05T23:03:11.976Z,1.77
2019-03-05T23:07:31.041Z,1.40
2019-03-05T23:11:50.068Z,1.20
2019-03-05T23:16:08.356Z,1.00
2019-03-05T23:20:26.878Z,1.07
2019-03-05T23:24:45.744Z,1.20
2019-03-05T23:29:05.068Z,1.10
2019-03-05T23:33:23.144Z,1.93
2019-03-05T23:37:41.653Z,1.20
2019-03-05T23:41:59.831Z,1.30
2019-03-05T23:46:18.028Z,1.20
2019-03-05T23:50:36.579Z,2.17
2019-03-05T23:54:54.830Z,1.90
2019-03-05T23:59:13.033Z,1.30
